sensor_id;sensor_type;location;lat;lon;timestamp;P1;durP1;ratioP1;P2;durP2;ratioP2
35540;SDS011;21650;48.840;9.162;2023-03-29T00:00:20;3.73;;;1.83;;
35540;SDS011;21650;48.840;9.162;2023-03-29T00:02:45;2.10;;;1.63;;
35540;SDS011;21650;48.840;9.162;2023-03-29T00:05:12;4.40;;;1.70;;
35540;SDS011;21650;48.840;9.162;2023-03-29T00:07:39;2.90;;;1.87;;
35540;SDS011;21650;48.840;9.162;2023-03-29T00:10:06;2.63;;;1.67;;
35540;SDS011;21650;48.840;9.162;2023-03-29T00:12:34;2.27;;;1.80;;
35540;SDS011;21650;48.840;9.162;2023-03-29T00:15:00;2.10;;;1.43;;
35540;SDS011;21650;48.840;9.162;2023-03-29T00:17:26;2.17;;;1.30;;
35540;SDS011;21650;48.840;9.162;2023-03-29T00:19:52;2.67;;;1.77;;
35540;SDS011;21650;48.840;9.162;2023-03-29T00:22:17;3.27;;;1.70;;
35540;SDS011;21650;48.840;9.162;2023-03-29T00:24:43;3.80;;;1.67;;
35540;SDS011;21650;48.840;9.162;2023-03-29T00:27:11;1.90;;;1.57;;
35540;SDS011;21650;48.840;9.162;2023-03-29T00:29:37;2.57;;;1.83;;
35540;SDS011;21650;48.840;9.162;2023-03-29T00:32:03;4.67;;;2.17;;
35540;SDS011;21650;48.840;9.162;2023-03-29T00:34:29;2.40;;;1.90;;
35540;SDS011;21650;48.840;9.162;2023-03-29T00:36:55;3.17;;;1.93;;
35540;SDS011;21650;48.840;9.162;2023-03-29T00:39:21;3.03;;;1.73;;
35540;SDS011;21650;48.840;9.162;2023-03-29T00:41:49;4.17;;;2.53;;
35540;SDS011;21650;48.840;9.162;2023-03-29T00:47:19;3.30;;;1.80;;
35540;SDS011;21650;48.840;9.162;2023-03-29T00:49:59;2.73;;;2.00;;
35540;SDS011;21650;48.840;9.162;2023-03-29T00:52:29;2.90;;;2.13;;
35540;SDS011;21650;48.840;9.162;2023-03-29T00:54:56;3.67;;;2.10;;
35540;SDS011;21650;48.840;9.162;2023-03-29T00:57:25;3.50;;;2.00;;
35540;SDS011;21650;48.840;9.162;2023-03-29T00:59:53;2.97;;;2.03;;
35540;SDS011;21650;48.840;9.162;2023-03-29T01:02:22;2.93;;;2.03;;
35540;SDS011;21650;48.840;9.162;2023-03-29T01:04:54;2.77;;;2.10;;
35540;SDS011;21650;48.840;9.162;2023-03-29T01:07:31;3.30;;;2.40;;
35540;SDS011;21650;48.840;9.162;2023-03-29T01:10:38;3.07;;;2.20;;
35540;SDS011;21650;48.840;9.162;2023-03-29T01:13:09;3.20;;;2.40;;
35540;SDS011;21650;48.840;9.162;2023-03-29T01:15:39;5.47;;;2.90;;
35540;SDS011;21650;48.840;9.162;2023-03-29T01:18:08;3.10;;;2.50;;
35540;SDS011;21650;48.840;9.162;2023-03-29T01:23:31;6.53;;;2.87;;
35540;SDS011;21650;48.840;9.162;2023-03-29T01:29:16;8.87;;;3.50;;
35540;SDS011;21650;48.840;9.162;2023-03-29T01:31:53;4.87;;;3.27;;
35540;SDS011;21650;48.840;9.162;2023-03-29T01:34:26;4.40;;;2.83;;
35540;SDS011;21650;48.840;9.162;2023-03-29T01:37:32;7.90;;;2.70;;
35540;SDS011;21650;48.840;9.162;2023-03-29T01:40:13;5.97;;;3.20;;
35540;SDS011;21650;48.840;9.162;2023-03-29T01:45:50;4.40;;;3.00;;
35540;SDS011;21650;48.840;9.162;2023-03-29T01:51:03;6.27;;;3.10;;
35540;SDS011;21650;48.840;9.162;2023-03-29T01:56:15;3.93;;;2.57;;
35540;SDS011;21650;48.840;9.162;2023-03-29T01:58:46;8.10;;;2.70;;
35540;SDS011;21650;48.840;9.162;2023-03-29T02:01:22;4.37;;;2.87;;
35540;SDS011;21650;48.840;9.162;2023-03-29T02:03:52;4.80;;;2.77;;
35540;SDS011;21650;48.840;9.162;2023-03-29T02:06:21;2.83;;;2.30;;
35540;SDS011;21650;48.840;9.162;2023-03-29T02:08:50;4.67;;;2.63;;
35540;SDS011;21650;48.840;9.162;2023-03-29T02:11:19;4.77;;;2.63;;
35540;SDS011;21650;48.840;9.162;2023-03-29T02:13:47;2.93;;;2.30;;
35540;SDS011;21650;48.840;9.162;2023-03-29T02:16:13;4.37;;;2.10;;
35540;SDS011;21650;48.840;9.162;2023-03-29T02:18:40;3.67;;;2.20;;
35540;SDS011;21650;48.840;9.162;2023-03-29T02:21:08;3.93;;;2.10;;
35540;SDS011;21650;48.840;9.162;2023-03-29T02:23:44;3.37;;;2.17;;
35540;SDS011;21650;48.840;9.162;2023-03-29T02:26:13;3.53;;;2.00;;
35540;SDS011;21650;48.840;9.162;2023-03-29T02:28:39;2.87;;;2.27;;
35540;SDS011;21650;48.840;9.162;2023-03-29T02:34:00;2.83;;;2.40;;
35540;SDS011;21650;48.840;9.162;2023-03-29T02:36:39;2.07;;;1.87;;
35540;SDS011;21650;48.840;9.162;2023-03-29T02:39:11;5.70;;;2.20;;
35540;SDS011;21650;48.840;9.162;2023-03-29T02:41:39;5.93;;;2.53;;
35540;SDS011;21650;48.840;9.162;2023-03-29T02:44:09;2.43;;;2.10;;
35540;SDS011;21650;48.840;9.162;2023-03-29T02:46:39;3.97;;;2.00;;
35540;SDS011;21650;48.840;9.162;2023-03-29T02:49:07;2.93;;;2.10;;
35540;SDS011;21650;48.840;9.162;2023-03-29T02:51:34;6.93;;;2.90;;
35540;SDS011;21650;48.840;9.162;2023-03-29T02:54:03;2.77;;;2.10;;
35540;SDS011;21650;48.840;9.162;2023-03-29T02:56:44;2.80;;;2.37;;
35540;SDS011;21650;48.840;9.162;2023-03-29T02:59:18;5.70;;;2.23;;
35540;SDS011;21650;48.840;9.162;2023-03-29T03:01:46;3.90;;;2.27;;
35540;SDS011;21650;48.840;9.162;2023-03-29T03:04:12;4.53;;;2.20;;
35540;SDS011;21650;48.840;9.162;2023-03-29T03:06:38;1.93;;;1.80;;
35540;SDS011;21650;48.840;9.162;2023-03-29T03:09:04;3.57;;;2.50;;
35540;SDS011;21650;48.840;9.162;2023-03-29T03:11:31;3.63;;;2.03;;
35540;SDS011;21650;48.840;9.162;2023-03-29T03:13:57;3.03;;;2.03;;
35540;SDS011;21650;48.840;9.162;2023-03-29T03:16:23;3.70;;;2.40;;
35540;SDS011;21650;48.840;9.162;2023-03-29T03:18:49;2.30;;;2.10;;
35540;SDS011;21650;48.840;9.162;2023-03-29T03:21:15;4.63;;;2.33;;
35540;SDS011;21650;48.840;9.162;2023-03-29T03:23:42;3.13;;;2.30;;
35540;SDS011;21650;48.840;9.162;2023-03-29T03:26:09;5.07;;;2.20;;
35540;SDS011;21650;48.840;9.162;2023-03-29T03:28:35;2.97;;;2.00;;
35540;SDS011;21650;48.840;9.162;2023-03-29T03:31:01;4.27;;;2.53;;
35540;SDS011;21650;48.840;9.162;2023-03-29T03:33:26;3.10;;;2.70;;
35540;SDS011;21650;48.840;9.162;2023-03-29T03:35:53;3.60;;;2.40;;
35540;SDS011;21650;48.840;9.162;2023-03-29T03:38:27;3.87;;;2.03;;
35540;SDS011;21650;48.840;9.162;2023-03-29T03:40:54;2.80;;;1.70;;
35540;SDS011;21650;48.840;9.162;2023-03-29T03:43:20;3.97;;;1.87;;
35540;SDS011;21650;48.840;9.162;2023-03-29T03:45:46;4.07;;;1.90;;
35540;SDS011;21650;48.840;9.162;2023-03-29T03:48:11;3.97;;;2.17;;
35540;SDS011;21650;48.840;9.162;2023-03-29T03:50:37;4.83;;;2.33;;
35540;SDS011;21650;48.840;9.162;2023-03-29T03:53:04;4.80;;;2.13;;
35540;SDS011;21650;48.840;9.162;2023-03-29T03:55:31;2.43;;;2.00;;
35540;SDS011;21650;48.840;9.162;2023-03-29T03:57:57;2.87;;;1.97;;
35540;SDS011;21650;48.840;9.162;2023-03-29T04:00:23;4.30;;;2.30;;
35540;SDS011;21650;48.840;9.162;2023-03-29T04:02:49;2.13;;;1.43;;
35540;SDS011;21650;48.840;9.162;2023-03-29T04:05:18;2.93;;;1.80;;
35540;SDS011;21650;48.840;9.162;2023-03-29T04:07:43;2.27;;;1.77;;
35540;SDS011;21650;48.840;9.162;2023-03-29T04:10:09;2.33;;;1.70;;
35540;SDS011;21650;48.840;9.162;2023-03-29T04:12:35;3.97;;;1.50;;
35540;SDS011;21650;48.840;9.162;2023-03-29T04:15:01;1.93;;;1.50;;
35540;SDS011;21650;48.840;9.162;2023-03-29T04:17:27;3.50;;;2.10;;
35540;SDS011;21650;48.840;9.162;2023-03-29T04:19:53;4.20;;;1.93;;
35540;SDS011;21650;48.840;9.162;2023-03-29T04:22:18;3.30;;;2.10;;
35540;SDS011;21650;48.840;9.162;2023-03-29T04:24:44;4.10;;;1.93;;
35540;SDS011;21650;48.840;9.162;2023-03-29T04:27:10;2.23;;;2.03;;
35540;SDS011;21650;48.840;9.162;2023-03-29T04:29:35;2.57;;;1.37;;
35540;SDS011;21650;48.840;9.162;2023-03-29T04:32:01;1.80;;;1.50;;
35540;SDS011;21650;48.840;9.162;2023-03-29T04:34:26;1.77;;;1.40;;
35540;SDS011;21650;48.840;9.162;2023-03-29T04:36:52;2.83;;;1.23;;
35540;SDS011;21650;48.840;9.162;2023-03-29T04:39:17;2.10;;;1.27;;
35540;SDS011;21650;48.840;9.162;2023-03-29T04:41:43;2.57;;;1.53;;
35540;SDS011;21650;48.840;9.162;2023-03-29T04:44:10;1.83;;;1.13;;
35540;SDS011;21650;48.840;9.162;2023-03-29T04:46:36;2.70;;;1.17;;
35540;SDS011;21650;48.840;9.162;2023-03-29T04:49:04;1.83;;;1.37;;
35540;SDS011;21650;48.840;9.162;2023-03-29T04:51:30;3.73;;;1.30;;
35540;SDS011;21650;48.840;9.162;2023-03-29T04:53:56;3.87;;;1.60;;
35540;SDS011;21650;48.840;9.162;2023-03-29T04:56:21;1.60;;;1.20;;
35540;SDS011;21650;48.840;9.162;2023-03-29T04:58:47;3.03;;;1.63;;
35540;SDS011;21650;48.840;9.162;2023-03-29T05:01:13;2.70;;;1.20;;
35540;SDS011;21650;48.840;9.162;2023-03-29T05:03:39;4.17;;;1.40;;
35540;SDS011;21650;48.840;9.162;2023-03-29T05:06:07;3.20;;;1.40;;
35540;SDS011;21650;48.840;9.162;2023-03-29T05:08:34;4.67;;;1.60;;
35540;SDS011;21650;48.840;9.162;2023-03-29T05:11:05;2.30;;;1.00;;
35540;SDS011;21650;48.840;9.162;2023-03-29T05:13:37;2.83;;;1.20;;
35540;SDS011;21650;48.840;9.162;2023-03-29T05:16:04;2.93;;;1.27;;
35540;SDS011;21650;48.840;9.162;2023-03-29T05:18:30;1.17;;;0.90;;
35540;SDS011;21650;48.840;9.162;2023-03-29T05:20:56;1.23;;;1.10;;
35540;SDS011;21650;48.840;9.162;2023-03-29T05:23:23;2.90;;;1.50;;
35540;SDS011;21650;48.840;9.162;2023-03-29T05:25:50;1.90;;;1.47;;
35540;SDS011;21650;48.840;9.162;2023-03-29T05:28:17;2.90;;;1.17;;
35540;SDS011;21650;48.840;9.162;2023-03-29T05:30:43;5.83;;;1.60;;
35540;SDS011;21650;48.840;9.162;2023-03-29T05:33:10;1.93;;;1.53;;
35540;SDS011;21650;48.840;9.162;2023-03-29T05:35:36;1.73;;;1.07;;
35540;SDS011;21650;48.840;9.162;2023-03-29T05:38:02;3.37;;;1.70;;
35540;SDS011;21650;48.840;9.162;2023-03-29T05:40:29;3.03;;;1.50;;
35540;SDS011;21650;48.840;9.162;2023-03-29T05:42:59;2.43;;;1.33;;
35540;SDS011;21650;48.840;9.162;2023-03-29T05:45:26;3.90;;;1.37;;
35540;SDS011;21650;48.840;9.162;2023-03-29T05:47:53;5.03;;;1.40;;
35540;SDS011;21650;48.840;9.162;2023-03-29T05:50:20;4.23;;;1.40;;
35540;SDS011;21650;48.840;9.162;2023-03-29T05:52:45;1.27;;;1.07;;
35540;SDS011;21650;48.840;9.162;2023-03-29T05:55:11;4.53;;;1.20;;
35540;SDS011;21650;48.840;9.162;2023-03-29T05:57:37;1.93;;;1.10;;
35540;SDS011;21650;48.840;9.162;2023-03-29T06:00:04;3.20;;;1.40;;
35540;SDS011;21650;48.840;9.162;2023-03-29T06:02:48;1.63;;;1.10;;
35540;SDS011;21650;48.840;9.162;2023-03-29T06:05:17;2.47;;;1.17;;
35540;SDS011;21650;48.840;9.162;2023-03-29T06:07:44;2.67;;;1.10;;
35540;SDS011;21650;48.840;9.162;2023-03-29T06:10:13;2.27;;;1.27;;
35540;SDS011;21650;48.840;9.162;2023-03-29T06:12:40;2.43;;;1.83;;
35540;SDS011;21650;48.840;9.162;2023-03-29T06:15:09;1.97;;;1.70;;
35540;SDS011;21650;48.840;9.162;2023-03-29T06:17:37;4.03;;;1.47;;
35540;SDS011;21650;48.840;9.162;2023-03-29T06:20:05;3.30;;;1.53;;
35540;SDS011;21650;48.840;9.162;2023-03-29T06:22:53;3.77;;;1.60;;
35540;SDS011;21650;48.840;9.162;2023-03-29T06:25:22;3.83;;;1.77;;
35540;SDS011;21650;48.840;9.162;2023-03-29T06:27:56;3.47;;;1.70;;
35540;SDS011;21650;48.840;9.162;2023-03-29T06:30:22;2.07;;;1.27;;
35540;SDS011;21650;48.840;9.162;2023-03-29T06:32:54;4.80;;;1.63;;
35540;SDS011;21650;48.840;9.162;2023-03-29T06:35:26;6.93;;;1.50;;
35540;SDS011;21650;48.840;9.162;2023-03-29T06:37:54;1.37;;;1.17;;
35540;SDS011;21650;48.840;9.162;2023-03-29T06:40:26;2.60;;;1.30;;
35540;SDS011;21650;48.840;9.162;2023-03-29T06:42:55;3.87;;;1.63;;
35540;SDS011;21650;48.840;9.162;2023-03-29T06:45:29;3.53;;;1.33;;
35540;SDS011;21650;48.840;9.162;2023-03-29T06:47:57;3.13;;;1.50;;
35540;SDS011;21650;48.840;9.162;2023-03-29T06:50:23;4.10;;;1.70;;
35540;SDS011;21650;48.840;9.162;2023-03-29T06:52:50;3.23;;;2.07;;
35540;SDS011;21650;48.840;9.162;2023-03-29T06:55:16;3.93;;;1.90;;
35540;SDS011;21650;48.840;9.162;2023-03-29T06:57:44;6.63;;;2.23;;
35540;SDS011;21650;48.840;9.162;2023-03-29T07:00:10;6.03;;;3.27;;
35540;SDS011;21650;48.840;9.162;2023-03-29T07:02:46;6.30;;;3.70;;
35540;SDS011;21650;48.840;9.162;2023-03-29T07:05:13;8.50;;;3.87;;
35540;SDS011;21650;48.840;9.162;2023-03-29T07:07:43;8.00;;;3.30;;
35540;SDS011;21650;48.840;9.162;2023-03-29T07:10:20;8.47;;;3.23;;
35540;SDS011;21650;48.840;9.162;2023-03-29T07:12:48;5.53;;;3.13;;
35540;SDS011;21650;48.840;9.162;2023-03-29T07:15:18;6.87;;;3.17;;
35540;SDS011;21650;48.840;9.162;2023-03-29T07:17:48;3.77;;;2.57;;
35540;SDS011;21650;48.840;9.162;2023-03-29T07:20:22;4.43;;;2.77;;
35540;SDS011;21650;48.840;9.162;2023-03-29T07:22:49;4.43;;;2.37;;
35540;SDS011;21650;48.840;9.162;2023-03-29T07:25:16;2.37;;;1.90;;
35540;SDS011;21650;48.840;9.162;2023-03-29T07:27:49;5.80;;;2.03;;
35540;SDS011;21650;48.840;9.162;2023-03-29T07:30:21;2.87;;;1.80;;
35540;SDS011;21650;48.840;9.162;2023-03-29T07:32:50;6.67;;;2.20;;
35540;SDS011;21650;48.840;9.162;2023-03-29T07:35:22;5.20;;;2.27;;
35540;SDS011;21650;48.840;9.162;2023-03-29T07:37:49;3.47;;;2.23;;
35540;SDS011;21650;48.840;9.162;2023-03-29T07:40:42;7.10;;;2.40;;
35540;SDS011;21650;48.840;9.162;2023-03-29T07:46:55;4.30;;;1.97;;
35540;SDS011;21650;48.840;9.162;2023-03-29T07:49:23;5.17;;;2.40;;
35540;SDS011;21650;48.840;9.162;2023-03-29T07:51:57;4.03;;;2.10;;
35540;SDS011;21650;48.840;9.162;2023-03-29T07:54:24;3.97;;;2.10;;
35540;SDS011;21650;48.840;9.162;2023-03-29T07:56:49;2.80;;;2.00;;
35540;SDS011;21650;48.840;9.162;2023-03-29T07:59:15;3.63;;;2.20;;
35540;SDS011;21650;48.840;9.162;2023-03-29T08:01:41;3.30;;;2.00;;
35540;SDS011;21650;48.840;9.162;2023-03-29T08:04:06;5.57;;;2.23;;
35540;SDS011;21650;48.840;9.162;2023-03-29T08:06:32;2.70;;;2.00;;
35540;SDS011;21650;48.840;9.162;2023-03-29T08:08:58;7.87;;;2.63;;
35540;SDS011;21650;48.840;9.162;2023-03-29T08:11:24;10.00;;;2.73;;
35540;SDS011;21650;48.840;9.162;2023-03-29T08:13:50;7.07;;;2.50;;
35540;SDS011;21650;48.840;9.162;2023-03-29T08:16:16;3.37;;;2.40;;
35540;SDS011;21650;48.840;9.162;2023-03-29T08:18:42;6.13;;;2.27;;
35540;SDS011;21650;48.840;9.162;2023-03-29T08:21:08;5.27;;;2.27;;
35540;SDS011;21650;48.840;9.162;2023-03-29T08:23:33;7.57;;;2.13;;
35540;SDS011;21650;48.840;9.162;2023-03-29T08:25:59;5.47;;;2.53;;
35540;SDS011;21650;48.840;9.162;2023-03-29T08:28:25;2.80;;;2.03;;
35540;SDS011;21650;48.840;9.162;2023-03-29T08:30:52;4.90;;;2.00;;
35540;SDS011;21650;48.840;9.162;2023-03-29T08:33:18;3.97;;;2.27;;
35540;SDS011;21650;48.840;9.162;2023-03-29T08:35:44;6.07;;;2.50;;
35540;SDS011;21650;48.840;9.162;2023-03-29T08:38:09;4.90;;;2.40;;
35540;SDS011;21650;48.840;9.162;2023-03-29T08:40:36;4.73;;;2.00;;
35540;SDS011;21650;48.840;9.162;2023-03-29T08:48:44;8.63;;;2.87;;
35540;SDS011;21650;48.840;9.162;2023-03-29T08:51:21;4.07;;;2.50;;
35540;SDS011;21650;48.840;9.162;2023-03-29T08:53:52;4.37;;;2.27;;
35540;SDS011;21650;48.840;9.162;2023-03-29T08:56:26;5.67;;;2.50;;
35540;SDS011;21650;48.840;9.162;2023-03-29T08:58:55;3.00;;;2.10;;
35540;SDS011;21650;48.840;9.162;2023-03-29T09:01:22;4.07;;;2.10;;
35540;SDS011;21650;48.840;9.162;2023-03-29T09:03:52;2.97;;;2.03;;
35540;SDS011;21650;48.840;9.162;2023-03-29T09:06:23;4.20;;;2.33;;
35540;SDS011;21650;48.840;9.162;2023-03-29T09:08:49;8.70;;;2.50;;
35540;SDS011;21650;48.840;9.162;2023-03-29T09:19:38;6.30;;;2.03;;
35540;SDS011;21650;48.840;9.162;2023-03-29T09:22:33;4.90;;;2.00;;
35540;SDS011;21650;48.840;9.162;2023-03-29T09:25:23;5.07;;;2.10;;
35540;SDS011;21650;48.840;9.162;2023-03-29T09:27:56;7.30;;;2.33;;
35540;SDS011;21650;48.840;9.162;2023-03-29T09:30:33;2.90;;;2.10;;
35540;SDS011;21650;48.840;9.162;2023-03-29T09:35:53;3.10;;;1.47;;
35540;SDS011;21650;48.840;9.162;2023-03-29T09:38:26;2.23;;;1.57;;
35540;SDS011;21650;48.840;9.162;2023-03-29T09:40:54;4.67;;;2.23;;
35540;SDS011;21650;48.840;9.162;2023-03-29T09:43:31;2.10;;;1.50;;
35540;SDS011;21650;48.840;9.162;2023-03-29T09:46:01;4.37;;;2.00;;
35540;SDS011;21650;48.840;9.162;2023-03-29T09:48:30;2.40;;;1.67;;
35540;SDS011;21650;48.840;9.162;2023-03-29T09:51:02;3.10;;;1.83;;
35540;SDS011;21650;48.840;9.162;2023-03-29T09:53:31;3.73;;;1.80;;
35540;SDS011;21650;48.840;9.162;2023-03-29T09:55:56;3.17;;;1.47;;
35540;SDS011;21650;48.840;9.162;2023-03-29T09:58:25;3.50;;;1.37;;
35540;SDS011;21650;48.840;9.162;2023-03-29T10:00:52;8.63;;;1.73;;
35540;SDS011;21650;48.840;9.162;2023-03-29T10:03:28;2.10;;;1.10;;
35540;SDS011;21650;48.840;9.162;2023-03-29T10:05:57;1.37;;;1.23;;
35540;SDS011;21650;48.840;9.162;2023-03-29T10:10:51;3.90;;;1.40;;
35540;SDS011;21650;48.840;9.162;2023-03-29T10:13:22;2.07;;;1.20;;
35540;SDS011;21650;48.840;9.162;2023-03-29T10:15:57;2.13;;;1.47;;
35540;SDS011;21650;48.840;9.162;2023-03-29T10:18:28;4.33;;;1.73;;
35540;SDS011;21650;48.840;9.162;2023-03-29T10:21:03;3.87;;;1.40;;
35540;SDS011;21650;48.840;9.162;2023-03-29T10:23:56;3.20;;;1.23;;
35540;SDS011;21650;48.840;9.162;2023-03-29T10:26:49;4.33;;;1.70;;
35540;SDS011;21650;48.840;9.162;2023-03-29T10:29:24;3.53;;;1.13;;
35540;SDS011;21650;48.840;9.162;2023-03-29T10:31:58;4.17;;;2.13;;
35540;SDS011;21650;48.840;9.162;2023-03-29T10:34:23;3.60;;;2.60;;
35540;SDS011;21650;48.840;9.162;2023-03-29T10:37:01;3.80;;;1.50;;
35540;SDS011;21650;48.840;9.162;2023-03-29T10:39:27;3.70;;;3.07;;
35540;SDS011;21650;48.840;9.162;2023-03-29T10:41:57;5.90;;;5.10;;
35540;SDS011;21650;48.840;9.162;2023-03-29T10:44:26;4.30;;;2.13;;
35540;SDS011;21650;48.840;9.162;2023-03-29T10:46:53;3.53;;;1.50;;
35540;SDS011;21650;48.840;9.162;2023-03-29T10:49:20;5.03;;;1.07;;
35540;SDS011;21650;48.840;9.162;2023-03-29T10:51:47;6.67;;;1.80;;
35540;SDS011;21650;48.840;9.162;2023-03-29T10:54:14;1.33;;;1.10;;
35540;SDS011;21650;48.840;9.162;2023-03-29T10:56:49;1.77;;;1.07;;
35540;SDS011;21650;48.840;9.162;2023-03-29T10:59:29;2.77;;;1.37;;
35540;SDS011;21650;48.840;9.162;2023-03-29T11:07:37;3.67;;;1.50;;
35540;SDS011;21650;48.840;9.162;2023-03-29T11:13:09;1.83;;;1.30;;
35540;SDS011;21650;48.840;9.162;2023-03-29T11:18:24;3.87;;;1.40;;
35540;SDS011;21650;48.840;9.162;2023-03-29T11:32:33;3.37;;;1.50;;
35540;SDS011;21650;48.840;9.162;2023-03-29T11:35:30;3.50;;;1.63;;
35540;SDS011;21650;48.840;9.162;2023-03-29T11:38:15;2.83;;;1.60;;
35540;SDS011;21650;48.840;9.162;2023-03-29T11:41:00;3.47;;;1.37;;
35540;SDS011;21650;48.840;9.162;2023-03-29T11:43:30;1.60;;;1.50;;
35540;SDS011;21650;48.840;9.162;2023-03-29T11:46:11;2.37;;;1.40;;
35540;SDS011;21650;48.840;9.162;2023-03-29T11:48:46;4.57;;;1.97;;
35540;SDS011;21650;48.840;9.162;2023-03-29T11:51:22;1.50;;;1.00;;
35540;SDS011;21650;48.840;9.162;2023-03-29T11:53:57;2.20;;;1.40;;
35540;SDS011;21650;48.840;9.162;2023-03-29T11:56:53;2.03;;;1.47;;
35540;SDS011;21650;48.840;9.162;2023-03-29T12:02:36;1.63;;;1.17;;
35540;SDS011;21650;48.840;9.162;2023-03-29T12:05:12;2.67;;;1.20;;
35540;SDS011;21650;48.840;9.162;2023-03-29T12:07:48;2.10;;;1.47;;
35540;SDS011;21650;48.840;9.162;2023-03-29T12:10:29;6.83;;;1.40;;
35540;SDS011;21650;48.840;9.162;2023-03-29T12:16:13;6.30;;;2.13;;
35540;SDS011;21650;48.840;9.162;2023-03-29T12:18:40;2.63;;;1.30;;
35540;SDS011;21650;48.840;9.162;2023-03-29T12:21:17;1.80;;;1.20;;
35540;SDS011;21650;48.840;9.162;2023-03-29T12:23:45;2.50;;;1.57;;
35540;SDS011;21650;48.840;9.162;2023-03-29T12:40:25;2.00;;;1.20;;
35540;SDS011;21650;48.840;9.162;2023-03-29T12:42:53;2.07;;;1.10;;
35540;SDS011;21650;48.840;9.162;2023-03-29T12:45:31;2.40;;;1.30;;
35540;SDS011;21650;48.840;9.162;2023-03-29T12:48:01;4.13;;;1.27;;
35540;SDS011;21650;48.840;9.162;2023-03-29T12:50:34;1.63;;;1.10;;
35540;SDS011;21650;48.840;9.162;2023-03-29T12:53:17;4.73;;;1.30;;
35540;SDS011;21650;48.840;9.162;2023-03-29T12:58:39;2.77;;;1.50;;
35540;SDS011;21650;48.840;9.162;2023-03-29T13:09:32;2.73;;;1.10;;
35540;SDS011;21650;48.840;9.162;2023-03-29T13:14:59;2.67;;;0.73;;
35540;SDS011;21650;48.840;9.162;2023-03-29T13:17:56;0.93;;;0.70;;
35540;SDS011;21650;48.840;9.162;2023-03-29T13:20:45;2.97;;;1.20;;
35540;SDS011;21650;48.840;9.162;2023-03-29T13:34:40;3.17;;;1.20;;
35540;SDS011;21650;48.840;9.162;2023-03-29T13:37:36;2.90;;;0.97;;
35540;SDS011;21650;48.840;9.162;2023-03-29T13:40:27;3.50;;;0.90;;
35540;SDS011;21650;48.840;9.162;2023-03-29T13:43:08;1.70;;;1.00;;
35540;SDS011;21650;48.840;9.162;2023-03-29T13:46:01;2.13;;;1.30;;
35540;SDS011;21650;48.840;9.162;2023-03-29T13:53:48;3.33;;;1.03;;
35540;SDS011;21650;48.840;9.162;2023-03-29T13:56:27;3.43;;;1.33;;
35540;SDS011;21650;48.840;9.162;2023-03-29T13:59:19;3.57;;;0.87;;
35540;SDS011;21650;48.840;9.162;2023-03-29T14:01:54;1.67;;;1.00;;
35540;SDS011;21650;48.840;9.162;2023-03-29T14:04:25;2.60;;;1.00;;
35540;SDS011;21650;48.840;9.162;2023-03-29T14:06:54;2.30;;;0.93;;
35540;SDS011;21650;48.840;9.162;2023-03-29T14:09:28;3.20;;;1.30;;
35540;SDS011;21650;48.840;9.162;2023-03-29T14:11:58;3.13;;;0.87;;
35540;SDS011;21650;48.840;9.162;2023-03-29T14:14:26;4.07;;;1.17;;
35540;SDS011;21650;48.840;9.162;2023-03-29T14:16:54;5.33;;;1.13;;
35540;SDS011;21650;48.840;9.162;2023-03-29T14:19:23;1.83;;;1.10;;
35540;SDS011;21650;48.840;9.162;2023-03-29T14:21:58;2.23;;;1.33;;
35540;SDS011;21650;48.840;9.162;2023-03-29T14:24:27;2.33;;;1.33;;
35540;SDS011;21650;48.840;9.162;2023-03-29T14:27:01;3.40;;;1.00;;
35540;SDS011;21650;48.840;9.162;2023-03-29T14:29:29;2.53;;;1.20;;
35540;SDS011;21650;48.840;9.162;2023-03-29T14:32:08;3.33;;;1.03;;
35540;SDS011;21650;48.840;9.162;2023-03-29T14:34:36;1.97;;;1.00;;
35540;SDS011;21650;48.840;9.162;2023-03-29T14:37:02;2.87;;;1.50;;
35540;SDS011;21650;48.840;9.162;2023-03-29T14:39:30;1.67;;;1.17;;
35540;SDS011;21650;48.840;9.162;2023-03-29T14:41:57;1.67;;;1.00;;
35540;SDS011;21650;48.840;9.162;2023-03-29T14:44:24;3.23;;;2.50;;
35540;SDS011;21650;48.840;9.162;2023-03-29T14:46:53;3.57;;;1.43;;
35540;SDS011;21650;48.840;9.162;2023-03-29T14:49:20;4.43;;;1.13;;
35540;SDS011;21650;48.840;9.162;2023-03-29T14:51:47;4.67;;;1.33;;
35540;SDS011;21650;48.840;9.162;2023-03-29T14:54:34;1.80;;;1.20;;
35540;SDS011;21650;48.840;9.162;2023-03-29T14:57:02;2.77;;;1.20;;
35540;SDS011;21650;48.840;9.162;2023-03-29T15:02:02;2.57;;;1.63;;
35540;SDS011;21650;48.840;9.162;2023-03-29T15:04:35;3.17;;;1.87;;
35540;SDS011;21650;48.840;9.162;2023-03-29T15:07:02;3.90;;;1.73;;
35540;SDS011;21650;48.840;9.162;2023-03-29T15:09:30;4.23;;;1.80;;
35540;SDS011;21650;48.840;9.162;2023-03-29T15:11:58;1.33;;;1.13;;
35540;SDS011;21650;48.840;9.162;2023-03-29T15:14:27;2.50;;;1.20;;
35540;SDS011;21650;48.840;9.162;2023-03-29T15:17:01;2.50;;;1.30;;
35540;SDS011;21650;48.840;9.162;2023-03-29T15:19:29;4.90;;;1.20;;
35540;SDS011;21650;48.840;9.162;2023-03-29T15:21:55;6.00;;;2.50;;
35540;SDS011;21650;48.840;9.162;2023-03-29T15:24:22;1.63;;;1.00;;
35540;SDS011;21650;48.840;9.162;2023-03-29T15:26:57;2.07;;;1.07;;
35540;SDS011;21650;48.840;9.162;2023-03-29T15:29:40;3.50;;;1.97;;
35540;SDS011;21650;48.840;9.162;2023-03-29T15:32:20;2.87;;;1.97;;
35540;SDS011;21650;48.840;9.162;2023-03-29T15:34:56;4.53;;;1.70;;
35540;SDS011;21650;48.840;9.162;2023-03-29T15:37:26;3.20;;;1.17;;
35540;SDS011;21650;48.840;9.162;2023-03-29T15:39:52;2.40;;;1.30;;
35540;SDS011;21650;48.840;9.162;2023-03-29T15:42:18;4.20;;;1.93;;
35540;SDS011;21650;48.840;9.162;2023-03-29T15:44:44;1.83;;;1.13;;
35540;SDS011;21650;48.840;9.162;2023-03-29T15:47:10;3.43;;;1.17;;
35540;SDS011;21650;48.840;9.162;2023-03-29T15:49:37;1.83;;;1.10;;
35540;SDS011;21650;48.840;9.162;2023-03-29T15:52:03;2.03;;;1.00;;
35540;SDS011;21650;48.840;9.162;2023-03-29T15:54:29;2.13;;;1.13;;
35540;SDS011;21650;48.840;9.162;2023-03-29T15:57:01;3.57;;;1.57;;
35540;SDS011;21650;48.840;9.162;2023-03-29T15:59:29;2.33;;;1.17;;
35540;SDS011;21650;48.840;9.162;2023-03-29T16:01:55;3.57;;;1.60;;
35540;SDS011;21650;48.840;9.162;2023-03-29T16:04:22;3.73;;;1.40;;
35540;SDS011;21650;48.840;9.162;2023-03-29T16:06:50;4.03;;;1.90;;
35540;SDS011;21650;48.840;9.162;2023-03-29T16:09:18;2.73;;;1.73;;
35540;SDS011;21650;48.840;9.162;2023-03-29T16:11:45;2.97;;;1.97;;
35540;SDS011;21650;48.840;9.162;2023-03-29T16:14:27;2.83;;;1.43;;
35540;SDS011;21650;48.840;9.162;2023-03-29T16:16:55;3.87;;;1.30;;
35540;SDS011;21650;48.840;9.162;2023-03-29T16:19:22;3.70;;;1.77;;
35540;SDS011;21650;48.840;9.162;2023-03-29T16:21:49;2.73;;;1.53;;
35540;SDS011;21650;48.840;9.162;2023-03-29T16:24:19;4.97;;;1.20;;
35540;SDS011;21650;48.840;9.162;2023-03-29T16:26:49;6.13;;;1.60;;
35540;SDS011;21650;48.840;9.162;2023-03-29T16:29:16;3.07;;;1.80;;
35540;SDS011;21650;48.840;9.162;2023-03-29T16:31:45;2.70;;;1.53;;
35540;SDS011;21650;48.840;9.162;2023-03-29T16:34:13;5.07;;;2.60;;
35540;SDS011;21650;48.840;9.162;2023-03-29T16:36:40;10.07;;;2.77;;
35540;SDS011;21650;48.840;9.162;2023-03-29T16:39:07;5.20;;;3.07;;
35540;SDS011;21650;48.840;9.162;2023-03-29T16:41:34;7.57;;;2.10;;
35540;SDS011;21650;48.840;9.162;2023-03-29T16:44:01;3.17;;;1.97;;
35540;SDS011;21650;48.840;9.162;2023-03-29T16:46:27;5.07;;;2.80;;
35540;SDS011;21650;48.840;9.162;2023-03-29T16:48:54;3.53;;;2.20;;
35540;SDS011;21650;48.840;9.162;2023-03-29T16:51:21;3.43;;;2.43;;
35540;SDS011;21650;48.840;9.162;2023-03-29T16:53:48;6.27;;;3.10;;
35540;SDS011;21650;48.840;9.162;2023-03-29T16:56:15;7.57;;;2.80;;
35540;SDS011;21650;48.840;9.162;2023-03-29T16:58:41;5.70;;;2.67;;
35540;SDS011;21650;48.840;9.162;2023-03-29T17:01:08;9.43;;;3.17;;
35540;SDS011;21650;48.840;9.162;2023-03-29T17:03:36;3.60;;;1.93;;
35540;SDS011;21650;48.840;9.162;2023-03-29T17:06:02;3.50;;;2.00;;